Flight Track Log - Related Links

Times and Time Zones

All times are in EDT time to prevent confusion due to time zone crossing. See the FSR411 flight status page for this flight to view local times or setup timezone preferences in your user account.

Time Position Orientation Groundspeed Altitude Reporting Facility
EDT Latitude Longitude Course Direction KTS MPH feet Rate Location/Type
Sat 10:12:51 PM 29.6353 -95.2892 106° East 157 181 800  Level Houston Center
Sat 10:14:14 PM 29.6211 -95.2319 106° East 288 331 3,000 2,100 Climbing Houston Center
Sat 10:15:11 PM 29.6983 -95.2431 353° North 265 305 5,700 3,161 Climbing Houston Center
Sat 10:16:06 PM 29.7600 -95.2739 337° Northwest 271 312 8,900 3,072 Climbing Houston Center
Sat 10:17:16 PM 29.8414 -95.2978 346° North 302 348 12,100 3,435 Climbing Houston Center
Sat 10:18:17 PM 29.9308 -95.2681 16° North 329 379 16,400 3,639 Climbing Houston Center
Sat 10:19:18 PM 30.0306 -95.2417 13° North 356 410 19,500 3,124 Climbing Houston Center
Sat 10:20:18 PM 30.1339 -95.2097 15° North 378 435 22,700 2,975 Climbing Houston Center
Sat 10:21:19 PM 30.2394 -95.1789 14° North 389 448 25,500 2,557 Climbing Houston Center
Sat 10:22:20 PM 30.3478 -95.1469 14° North 398 458 27,900 2,331 Climbing Houston Center
Sat 10:23:20 PM 30.4675 -95.1108 15° North 406 467 30,200 2,083 Climbing Houston Center
Sat 10:24:21 PM 30.5772 -95.0783 14° North 404 465 32,100 1,820 Climbing Houston Center
Sat 10:25:22 PM 30.6803 -95.0186 26° Northeast 414 476 33,900 1,721 Climbing Houston Center
Sat 10:26:23 PM 30.7839 -94.9539 28° Northeast 419 482 35,600 1,686 Climbing Houston Center
Sat 10:27:23 PM 30.8858 -94.8906 28° Northeast 415 478 37,300 1,388 Climbing Houston Center
Sat 10:28:24 PM 30.9858 -94.8294 28° Northeast 407 468 38,400 1,074 Climbing Houston Center
Sat 10:28:58 PM 31.0400 -94.7925 30° Northeast 408 470 39,000 1,085 Climbing Fort Worth Center
Sat 10:29:58 PM 31.1556 -94.7214 28° Northeast 414 476 40,100 1,000 Climbing Fort Worth Center
Sat 10:30:58 PM 31.2542 -94.6553 30° Northeast 414 476 41,000 450 Climbing Fort Worth Center
Sat 10:31:58 PM 31.3569 -94.5842 31° Northeast 414 476 41,000  Level Fort Worth Center
Sat 10:32:58 PM 31.4639 -94.5103 31° Northeast 427 491 41,000  Level Fort Worth Center
Sat 10:33:58 PM 31.5667 -94.4389 31° Northeast 427 491 41,000  Level Fort Worth Center
Sat 10:34:58 PM 31.6714 -94.3647 31° Northeast 432 497 41,000  Level Fort Worth Center
Sat 10:35:58 PM 31.7781 -94.2903 31° Northeast 437 503 41,000  Level Fort Worth Center
Sat 10:36:58 PM 31.8869 -94.2156 30° Northeast 437 503 41,000  Level Fort Worth Center
Sat 10:37:58 PM 31.9933 -94.1383 32° Northeast 437 503 41,000  Level Fort Worth Center
Sat 10:38:58 PM 32.1019 -94.0633 30° Northeast 437 503 41,000  Level Fort Worth Center
Sat 10:39:58 PM 32.1961 -93.9889 34° Northeast 442 509 41,000  Level Fort Worth Center
Sat 10:40:58 PM 32.3067 -93.9133 30° Northeast 447 514 41,000  Level Fort Worth Center
Sat 10:41:58 PM 32.4131 -93.8353 32° Northeast 447 514 41,000  Level Fort Worth Center
Sat 10:42:58 PM 32.5217 -93.7622 30° Northeast 442 509 41,000  Level Fort Worth Center
Sat 10:43:58 PM 32.6297 -93.6814 32° Northeast 442 509 41,000  Level Fort Worth Center
Sat 10:44:58 PM 32.7383 -93.6053 31° Northeast 442 509 41,000  Level Fort Worth Center
Sat 10:45:58 PM 32.8486 -93.5289 30° Northeast 442 509 41,000  Level Fort Worth Center
Sat 10:46:58 PM 32.9547 -93.4525 31° Northeast 442 509 41,000  Level Fort Worth Center
Sat 10:47:58 PM 33.0628 -93.3756 31° Northeast 442 509 41,000  Level Fort Worth Center
Sat 10:48:58 PM 33.1708 -93.2964 32° Northeast 442 509 41,000  Level Fort Worth Center
Sat 10:49:58 PM 33.2789 -93.2167 32° Northeast 442 509 41,000  Level Fort Worth Center
Sat 10:50:58 PM 33.3869 -93.1394 31° Northeast 442 509 41,000  Level Fort Worth Center
Sat 10:51:58 PM 33.4928 -93.0647 30° Northeast 442 509 41,000  Level Fort Worth Center
Sat 10:52:52 PM 33.6089 -92.9786 32° Northeast 444 511 41,000  Level Memphis Center
Sat 10:53:52 PM 33.7064 -92.9092 31° Northeast 428 493 41,000  Level Memphis Center
Sat 10:54:52 PM 33.8122 -92.8297 32° Northeast 434 499 41,000  Level Memphis Center
Sat 10:55:52 PM 33.9203 -92.7528 31° Northeast 439 505 41,000  Level Memphis Center
Sat 10:56:52 PM 34.0283 -92.6706 32° Northeast 445 512 41,000  Level Memphis Center
Sat 10:57:52 PM 34.1361 -92.5881 32° Northeast 445 512 41,000  Level Memphis Center
Sat 10:58:52 PM 34.2442 -92.5056 32° Northeast 450 518 41,000  Level Memphis Center
Sat 10:59:52 PM 34.3539 -92.4225 32° Northeast 455 524 41,000  Level Memphis Center
Sat 11:00:52 PM 34.4617 -92.3422 32° Northeast 462 532 41,000  Level Memphis Center
Sat 11:01:52 PM 34.5736 -92.2589 31° Northeast 462 532 41,000  Level Memphis Center
Sat 11:02:52 PM 34.6833 -92.1756 32° Northeast 462 532 41,000  Level Memphis Center
Sat 11:03:52 PM 34.7950 -92.1019 28° Northeast 462 532 41,000  Level Memphis Center
Sat 11:04:52 PM 34.9044 -92.0283 29° Northeast 450 518 41,000  Level Memphis Center
Sat 11:05:52 PM 35.0181 -91.9494 30° Northeast 450 518 41,000  Level Memphis Center
Sat 11:06:52 PM 35.1317 -91.8728 29° Northeast 455 524 41,000  Level Memphis Center
Sat 11:07:52 PM 35.2472 -91.7986 28° Northeast 460 529 41,000  Level Memphis Center
Sat 11:08:52 PM 35.3589 -91.7192 30° Northeast 465 535 41,000  Level Memphis Center
Sat 11:09:52 PM 35.4658 -91.6444 30° Northeast 465 535 41,000  Level Memphis Center
Sat 11:10:53 PM 35.5772 -91.5694 29° Northeast 454 522 41,000  Level Memphis Center
Sat 11:11:52 PM 35.6822 -91.4969 29° Northeast 442 509 41,000  Level Memphis Center
Sat 11:12:52 PM 35.7914 -91.4217 29° Northeast 436 502 41,000  Level Memphis Center
Sat 11:13:52 PM 35.8961 -91.3461 30° Northeast 436 502 41,000  Level Memphis Center
Sat 11:14:52 PM 36.0053 -91.2706 29° Northeast 436 502 41,000  Level Memphis Center
Sat 11:15:52 PM 36.1119 -91.1972 29° Northeast 441 507 41,000  Level Memphis Center
Sat 11:16:52 PM 36.2231 -91.1211 29° Northeast 441 507 41,000  Level Memphis Center
Sat 11:17:52 PM 36.3361 -91.0422 29° Northeast 441 507 41,000  Level Memphis Center
Sat 11:18:52 PM 36.4428 -90.9683 29° Northeast 441 507 41,000  Level Memphis Center
Sat 11:21:03 PM 36.6650 -90.8094 30° Northeast 458 527 41,000  Level Kansas City Center
Sat 11:22:03 PM 36.7753 -90.7294 30° Northeast 457 526 41,000  Level Kansas City Center
Sat 11:23:03 PM 36.8867 -90.6503 30° Northeast 458 527 41,000  Level Kansas City Center
Sat 11:24:02 PM 36.9967 -90.5714 30° Northeast 456 525 41,000  Level Kansas City Center
Sat 11:25:04 PM 37.1100 -90.4900 30° Northeast 461 531 41,000  Level Kansas City Center
Sat 11:26:05 PM 37.2203 -90.4108 30° Northeast 459 528 41,000 -443 Level Kansas City Center
Sat 11:27:06 PM 37.3431 -90.3206 30° Northeast 458 527 40,100 -1,388 Descending Kansas City Center
Sat 11:28:06 PM 37.4464 -90.2447 30° Northeast 442 509 38,200 -1,934 Descending Kansas City Center
Sat 11:29:07 PM 37.5481 -90.1703 30° Northeast 428 493 36,200 -2,033 Descending Kansas City Center
Sat 11:30:07 PM 37.6531 -90.0947 30° Northeast 432 497 34,100 -1,884 Descending Kansas City Center
Sat 11:31:08 PM 37.7614 -90.0147 30° Northeast 444 511 32,400 -1,686 Descending Kansas City Center
Sat 11:32:08 PM 37.8778 -89.9294 30° Northeast 443 510 30,700 -1,613 Descending Kansas City Center
Sat 11:33:07 PM 37.9853 -89.8478 31° Northeast 449 517 29,200 -1,438 Descending Kansas City Center
Sat 11:34:09 PM 38.0925 -89.7678 30° Northeast 449 517 27,800 -1,240 Descending Kansas City Center
Sat 11:35:08 PM 38.1964 -89.6900 30° Northeast 438 504 26,700 -1,091 Descending Kansas City Center
Sat 11:36:10 PM 38.3028 -89.6111 30° Northeast 444 511 25,600 -1,328 Descending Kansas City Center
Sat 11:37:10 PM 38.4147 -89.5247 31° Northeast 440 506 24,000 -1,339 Descending Kansas City Center
Sat 11:38:11 PM 38.5172 -89.4478 30° Northeast 432 497 22,900 -1,068 Descending Kansas City Center
Sat 11:39:08 PM 38.6178 -89.3736 30° Northeast 422 486 21,900 -1,050 Descending Kansas City Center
Sat 11:40:11 PM 38.7178 -89.2983 30° Northeast 419 482 20,800 -1,041 Descending Kansas City Center
Sat 11:41:09 PM 38.8161 -89.2244 30° Northeast 414 476 19,800 -992 Descending Kansas City Center
Sat 11:42:12 PM 38.9131 -89.1514 30° Northeast 407 468 18,800 -1,016 Descending Kansas City Center
Sat 11:43:13 PM 39.0083 -89.0786 31° Northeast 400 460 17,700 -1,109 Descending Kansas City Center
Sat 11:44:11 PM 39.1097 -89.0014 31° Northeast 395 455 16,600 -1,091 Descending Kansas City Center
Sat 11:45:14 PM 39.1936 -88.9389 30° Northeast 379 436 15,500 -1,230 Descending Kansas City Center
Sat 11:46:13 PM 39.2842 -88.8683 31° Northeast 379 436 14,100 -1,412 Descending Kansas City Center
Sat 11:47:13 PM 39.3731 -88.8003 31° Northeast 375 432 12,700 -1,328 Descending Kansas City Center
Sat 11:48:15 PM 39.4622 -88.7314 31° Northeast 360 414 11,400 -836 Descending Kansas City Center
Sat 11:49:15 PM 39.5442 -88.6664 31° Northeast 350 403 11,000 -545 Descending Kansas City Center
Sat 11:50:16 PM 39.6261 -88.6036 31° Northeast 343 395 10,300 -1,140 Descending Kansas City Center
Sat 11:51:16 PM 39.6961 -88.5475 32° Northeast 310 357 8,700 -2,050 Descending Kansas City Center
Sat 11:52:16 PM 39.7622 -88.4964 31° Northeast 289 333 6,200 -2,182 Descending Kansas City Center
Sat 11:53:17 PM 39.8292 -88.4428 32° Northeast 286 329 4,300 -1,240 Descending Kansas City Center
Sat 11:54:17 PM 39.8925 -88.3911 32° Northeast 285 328 3,700 -600 Descending Kansas City Center
Sat 11:56:00 PM 40.0333 -88.2667 27° Northeast  Level FlightAware Approximate
Sun 12:03:00 AM 40.0388 -88.2778 27° Northeast  Level Estimated
Sun 12:04:00 AM 40.0388 -88.2778 27° Northeast  Level Estimated
Sun 12:05:00 AM 40.0388 -88.2778 27° Northeast  Level Estimated
Sun 12:06:00 AM 40.0388 -88.2778 27° Northeast  Level Estimated

Login

Don't have an account? Register now (free) for customized features, flight alerts, and more!